Terminal Aerodrome Forecast
Issued by NWS

Home | Current Version | Previous Version | Text Only | Print | Product List | Glossary On
Versions: 1 2 3 4 5 6 7 8 9 10 11 12 13 14 15 16 17 18 19 20 21 22 23 24 25 26
000
FTUS45 KGJT 211124
TAFMTJ
TAF
KMTJ 211124Z 2112/2212 12008G15KT P6SM SCT050 BKN100
      TEMPO 2112/2116 5SM -SHRA BKN060
     FM211600 14009KT P6SM VCSH SCT060 BKN100
     FM211900 33008KT P6SM VCSH SCT080 BKN120
     FM212100 31007KT P6SM VCTS SCT070CB SCT120
     FM220100 15006KT P6SM VCTS SCT060CB BKN100
     FM220600 16007KT P6SM VCSH SCT050 BKN080=

USA.gov is the U.S. government's official web portal to all federal, state and local government web resources and services.